Time;durP1;ratioP1;P1;durP2;ratioP2;P2;SDS_P1;SDS_P2;PMS_P1;PMS_P2;Temp;Humidity;BMP_temperature;BMP_pressure;BME280_temperature;BME280_humidity;BME280_pressure;Samples;Min_cycle;Max_cycle;Signal;HPM_P1;HPM_P2
2022/10/17 00:00:05;;;;;;;5.65;3.78;;;;;;;-140.72;100.00;52825.13;5047626;28;20017;-68
2022/10/17 00:02:30;;;;;;;5.40;3.90;;;;;;;-140.72;100.00;52849.47;5048851;28;20052;-67
2022/10/17 00:04:56;;;;;;;5.95;3.90;;;;;;;-140.72;100.00;52845.41;5047640;28;20465;-68
2022/10/17 00:07:21;;;;;;;3.95;3.25;;;;;;;-140.72;100.00;52861.66;5048407;28;20017;-68
2022/10/17 00:09:47;;;;;;;4.75;3.75;;;;;;;-140.72;100.00;52825.13;5047673;28;20052;-67
2022/10/17 00:12:12;;;;;;;5.95;3.85;;;;;;;-140.72;100.00;52881.94;5042803;28;20021;-67
2022/10/17 00:14:38;;;;;;;5.38;4.00;;;;;;;-140.72;100.00;52843.38;5048022;28;20472;-67
2022/10/17 00:17:04;;;;;;;4.80;3.15;;;;;;;-140.72;100.00;52847.44;5049126;28;20368;-66
2022/10/17 00:19:29;;;;;;;10.70;4.40;;;;;;;-140.72;100.00;52849.47;5045605;28;20027;-68
2022/10/17 00:21:54;;;;;;;5.90;3.83;;;;;;;-140.72;100.00;52867.72;5045893;28;20068;-66
2022/10/17 00:24:29;;;;;;;6.03;4.15;;;;;;;-140.72;100.00;52841.34;5042201;28;20063;-67
2022/10/17 00:26:54;;;;;;;5.28;4.15;;;;;;;-140.72;100.00;52863.66;5049328;28;20407;-68
2022/10/17 00:29:23;;;;;;;5.20;4.18;;;;;;;-140.72;100.00;52871.78;5040222;28;20029;-68
2022/10/17 00:31:48;;;;;;;5.57;3.65;;;;;;;-140.72;100.00;52865.69;5046300;28;20072;-67
2022/10/17 00:34:13;;;;;;;6.68;4.40;;;;;;;-140.72;100.00;52867.72;5045934;28;20099;-66
2022/10/17 00:36:39;;;;;;;4.65;4.10;;;;;;;-140.72;100.00;52871.78;5039060;28;20037;-68
2022/10/17 00:39:04;;;;;;;5.82;4.15;;;;;;;-140.72;100.00;52865.69;5047803;28;20033;-68
2022/10/17 00:41:32;;;;;;;5.32;3.97;;;;;;;-140.72;100.00;52871.78;5042621;28;20033;-68
2022/10/17 00:44:29;;;;;;;5.53;4.20;;;;;;;-140.72;100.00;52894.13;5046490;28;20131;-67
2022/10/17 00:47:03;;;;;;;5.45;4.18;;;;;;;-140.72;100.00;52898.16;5035696;28;20029;-67
2022/10/17 00:49:31;;;;;;;6.80;4.95;;;;;;;-140.72;100.00;52861.66;5041919;28;20465;-67
2022/10/17 00:52:00;;;;;;;5.93;4.28;;;;;;;-140.72;100.00;52845.41;5046088;28;20010;-67
2022/10/17 00:54:34;;;;;;;6.43;4.45;;;;;;;-140.72;100.00;52833.22;5039220;28;20505;-68
2022/10/17 00:57:00;;;;;;;5.68;4.25;;;;;;;-140.72;100.00;52904.25;5038918;28;20120;-68
2022/10/17 00:59:27;;;;;;;6.15;4.40;;;;;;;-140.72;100.00;52843.38;5044509;28;20547;-67
2022/10/17 01:01:59;;;;;;;6.95;5.22;;;;;;;-140.72;100.00;52871.78;5017884;28;20018;-67
2022/10/17 01:04:25;;;;;;;6.80;5.03;;;;;;;-140.72;100.00;52883.97;5025520;28;20018;-67
2022/10/17 01:06:54;;;;;;;5.60;4.68;;;;;;;-140.72;100.00;52875.84;5022961;28;20027;-68
2022/10/17 01:09:19;;;;;;;5.75;4.93;;;;;;;-140.72;100.00;52827.16;5026645;28;20133;-67
2022/10/17 01:12:10;;;;;;;5.22;4.35;;;;;;;-140.72;100.00;52855.56;5026945;28;20477;-68
2022/10/17 01:15:13;;;;;;;5.72;4.82;;;;;;;-140.72;100.00;52837.28;5027992;28;20028;-68
2022/10/17 01:18:10;;;;;;;8.48;4.78;;;;;;;-140.72;100.00;52855.56;5016271;28;20212;-68
2022/10/17 01:20:57;;;;;;;5.95;5.00;;;;;;;-140.72;100.00;52869.75;5017355;28;20416;-67
2022/10/17 01:23:38;;;;;;;5.85;4.50;;;;;;;-140.72;100.00;52833.22;5025559;28;20030;-67
2022/10/17 01:26:12;;;;;;;8.15;4.82;;;;;;;-140.72;100.00;52829.19;5027450;28;20036;-67
2022/10/17 01:28:59;;;;;;;6.68;4.95;;;;;;;-140.72;100.00;52835.25;5032264;28;20041;-67
2022/10/17 01:31:39;;;;;;;5.72;4.75;;;;;;;-140.72;100.00;52827.16;5029616;28;20372;-69
2022/10/17 01:34:22;;;;;;;5.10;3.65;;;;;;;-140.72;100.00;52875.84;5031352;28;20116;-67
2022/10/17 01:36:59;;;;;;;6.55;4.80;;;;;;;-140.72;100.00;52869.75;5031240;28;20037;-68
2022/10/17 01:39:59;;;;;;;5.20;4.35;;;;;;;-140.72;100.00;52861.66;5018001;28;20028;-68
2022/10/17 01:42:35;;;;;;;6.63;5.68;;;;;;;-140.72;100.00;52841.34;5031089;28;20481;-68
2022/10/17 01:45:04;;;;;;;8.73;4.78;;;;;;;-140.72;100.00;52853.53;5030421;28;20071;-68
2022/10/17 01:47:31;;;;;;;10.32;5.00;;;;;;;-140.72;100.00;52835.25;5028856;28;20496;-68
2022/10/17 01:50:03;;;;;;;7.72;5.43;;;;;;;-140.72;100.00;52857.59;5030861;28;20021;-68
2022/10/17 01:52:36;;;;;;;6.35;5.18;;;;;;;-140.72;100.00;52865.69;5018602;28;20455;-68
2022/10/17 01:55:13;;;;;;;11.75;6.05;;;;;;;-140.72;100.00;52875.84;5029620;28;20017;-66
2022/10/17 01:57:47;;;;;;;6.15;5.30;;;;;;;-140.72;100.00;52853.53;5030005;28;20017;-66
2022/10/17 02:00:20;;;;;;;7.57;5.95;;;;;;;-140.72;100.00;52855.56;5030914;28;20021;-68
2022/10/17 02:02:47;;;;;;;7.22;5.32;;;;;;;-140.72;100.00;52837.28;5012980;28;20017;-69
2022/10/17 02:05:15;;;;;;;9.48;5.38;;;;;;;-140.72;100.00;52869.75;5029335;28;20030;-67
2022/10/17 02:07:41;;;;;;;6.57;5.28;;;;;;;-140.72;100.00;52853.53;5026234;28;20261;-68
2022/10/17 02:10:17;;;;;;;9.27;5.20;;;;;;;-140.72;100.00;52847.44;5027114;28;20108;-68
2022/10/17 02:13:08;;;;;;;7.72;5.72;;;;;;;-140.72;100.00;52804.81;5028709;28;20056;-67
2022/10/17 02:15:45;;;;;;;6.47;4.88;;;;;;;-140.72;100.00;52796.72;5028308;28;20091;-67
2022/10/17 02:18:49;;;;;;;7.53;5.80;;;;;;;-140.72;100.00;52847.44;5016587;28;20083;-68
2022/10/17 02:21:28;;;;;;;7.88;5.20;;;;;;;-140.72;100.00;52831.19;5023060;28;20071;-68
2022/10/17 02:24:08;;;;;;;11.63;6.55;;;;;;;-140.72;100.00;52857.59;5016814;28;20030;-68
2022/10/17 02:26:43;;;;;;;8.35;5.07;;;;;;;-140.72;100.00;52879.91;5030144;28;20076;-67
2022/10/17 02:29:16;;;;;;;9.68;6.60;;;;;;;-140.72;100.00;52829.19;5028504;28;20077;-67
2022/10/17 02:31:53;;;;;;;12.30;6.45;;;;;;;-140.72;100.00;52796.72;5013395;28;20084;-67
2022/10/17 02:34:37;;;;;;;5.53;4.38;;;;;;;-140.72;100.00;52847.44;5016542;28;20044;-69
2022/10/17 02:37:05;;;;;;;7.65;5.57;;;;;;;-140.72;100.00;52831.19;5025484;28;20096;-68
2022/10/17 02:39:33;;;;;;;7.53;5.18;;;;;;;-140.72;100.00;52865.69;5029036;28;20021;-68
2022/10/17 02:42:03;;;;;;;6.90;5.55;;;;;;;-140.72;100.00;52857.59;5029916;28;20071;-68
2022/10/17 02:44:31;;;;;;;7.55;5.30;;;;;;;-140.72;100.00;52883.97;5019779;28;20041;-69
2022/10/17 02:47:26;;;;;;;9.75;5.30;;;;;;;-140.72;100.00;52861.66;5027695;28;20025;-69
2022/10/17 02:49:55;;;;;;;7.72;6.00;;;;;;;-140.72;100.00;52833.22;5026092;28;20037;-67
2022/10/17 02:52:30;;;;;;;11.40;5.75;;;;;;;-140.72;100.00;52829.19;5028669;28;20521;-69
2022/10/17 02:55:14;;;;;;;8.27;6.35;;;;;;;-140.72;100.00;52827.16;5017122;28;20455;-67
2022/10/17 02:57:45;;;;;;;7.25;5.10;;;;;;;-140.72;100.00;52827.16;5030419;28;20026;-68
2022/10/17 03:00:13;;;;;;;6.53;5.15;;;;;;;-140.72;100.00;52867.72;5019034;28;20057;-67
2022/10/17 03:02:41;;;;;;;8.45;4.78;;;;;;;-140.72;100.00;52806.84;5028490;28;20025;-68
2022/10/17 03:05:08;;;;;;;8.40;5.90;;;;;;;-140.72;100.00;52837.28;5029923;28;20113;-68
2022/10/17 03:07:33;;;;;;;5.95;5.35;;;;;;;-140.72;100.00;52814.97;5026490;28;20018;-69
2022/10/17 03:10:01;;;;;;;6.72;5.10;;;;;;;-140.72;100.00;52831.19;5029427;28;20030;-67
2022/10/17 03:12:57;;;;;;;7.38;5.40;;;;;;;-140.72;100.00;52853.53;5012855;28;20033;-69
2022/10/17 03:15:22;;;;;;;6.18;4.60;;;;;;;-140.72;100.00;52833.22;5018214;28;20374;-68
2022/10/17 03:17:47;;;;;;;7.15;5.30;;;;;;;-140.72;100.00;52829.19;5014649;28;20233;-66
2022/10/17 03:20:13;;;;;;;6.43;4.97;;;;;;;-140.72;100.00;52829.19;5026078;28;20028;-68
2022/10/17 03:22:38;;;;;;;7.90;5.63;;;;;;;-140.72;100.00;52829.19;5027027;28;20420;-67
2022/10/17 03:25:06;;;;;;;6.43;5.13;;;;;;;-140.72;100.00;52821.06;5028020;28;20097;-68
2022/10/17 03:27:32;;;;;;;8.63;5.15;;;;;;;-140.72;100.00;52814.97;5016898;28;20045;-68
2022/10/17 03:29:57;;;;;;;5.90;4.38;;;;;;;-140.72;100.00;52821.06;5023895;28;20475;-66
2022/10/17 03:32:22;;;;;;;7.82;5.25;;;;;;;-140.72;100.00;52814.97;5023739;28;20395;-68
2022/10/17 03:34:48;;;;;;;6.60;5.28;;;;;;;-140.72;100.00;52845.41;5014174;28;20022;-67
2022/10/17 03:37:16;;;;;;;9.18;5.22;;;;;;;-140.72;100.00;52810.91;5010861;28;20033;-69
2022/10/17 03:39:41;;;;;;;5.78;4.40;;;;;;;-140.72;100.00;52865.69;5016367;28;20017;-68
2022/10/17 03:42:06;;;;;;;7.13;5.15;;;;;;;-140.72;100.00;52873.81;5019552;28;20025;-68
2022/10/17 03:44:32;;;;;;;7.30;5.53;;;;;;;-140.72;100.00;52835.25;5018827;28;20029;-68
2022/10/17 03:46:57;;;;;;;8.23;5.25;;;;;;;-140.72;100.00;52821.06;5021071;28;20021;-71
2022/10/17 03:49:23;;;;;;;5.75;4.40;;;;;;;-140.72;100.00;52814.97;5027493;28;20025;-68
2022/10/17 03:51:48;;;;;;;6.10;5.05;;;;;;;-140.72;100.00;52855.56;5023734;28;20382;-68
2022/10/17 03:54:13;;;;;;;5.78;4.70;;;;;;;-140.72;100.00;52821.06;5026778;28;20056;-68
2022/10/17 03:56:39;;;;;;;6.60;5.38;;;;;;;-140.72;100.00;52812.94;5026049;28;20118;-68
2022/10/17 03:59:04;;;;;;;5.63;4.32;;;;;;;-140.72;100.00;52798.72;5023844;28;20029;-67
2022/10/17 04:01:30;;;;;;;6.28;4.97;;;;;;;-140.72;100.00;52821.06;5028345;28;20029;-68
2022/10/17 04:03:56;;;;;;;6.40;4.35;;;;;;;-140.72;100.00;52831.19;5013406;28;20017;-68
2022/10/17 04:06:22;;;;;;;10.13;6.15;;;;;;;-140.72;100.00;52784.53;5026334;28;20074;-67
2022/10/17 04:08:49;;;;;;;7.50;5.25;;;;;;;-140.72;100.00;52825.13;5024841;28;20068;-67
2022/10/17 04:11:19;;;;;;;8.63;5.55;;;;;;;-140.72;100.00;52806.84;5024260;28;20544;-68
2022/10/17 04:13:45;;;;;;;7.78;4.68;;;;;;;-140.72;100.00;52796.72;5020902;28;20083;-69
2022/10/17 04:16:15;;;;;;;7.38;4.90;;;;;;;-140.72;100.00;52796.72;5022458;28;20017;-69
2022/10/17 04:18:41;;;;;;;5.55;4.50;;;;;;;-140.72;100.00;52796.72;5020747;28;20026;-69
2022/10/17 04:21:07;;;;;;;9.95;5.45;;;;;;;-140.72;100.00;52814.97;5023045;28;20026;-67
2022/10/17 04:23:33;;;;;;;9.45;5.75;;;;;;;-140.72;100.00;52823.09;5019676;28;20021;-68
2022/10/17 04:26:00;;;;;;;6.45;4.78;;;;;;;-140.72;100.00;52796.72;5017309;28;20450;-67
2022/10/17 04:28:27;;;;;;;6.65;5.03;;;;;;;-140.72;100.00;52827.16;5015801;28;20049;-69
2022/10/17 04:31:04;;;;;;;6.40;5.10;;;;;;;-140.72;100.00;52810.91;5013385;28;20037;-66
2022/10/17 04:33:31;;;;;;;6.35;4.40;;;;;;;-140.72;100.00;52825.13;5020041;28;20021;-68
2022/10/17 04:36:05;;;;;;;5.35;4.25;;;;;;;-140.72;100.00;52806.84;5018671;28;20365;-66
2022/10/17 04:38:31;;;;;;;14.45;4.47;;;;;;;-140.72;100.00;52800.75;5011783;28;20037;-68
2022/10/17 04:40:58;;;;;;;7.80;3.80;;;;;;;-140.72;100.00;52788.59;5025446;28;20033;-67
2022/10/17 04:43:24;;;;;;;8.95;5.32;;;;;;;-140.72;100.00;52829.19;5025826;28;20100;-68
2022/10/17 04:45:49;;;;;;;6.85;4.57;;;;;;;-140.72;100.00;52837.28;5022418;28;20082;-68
2022/10/17 04:48:14;;;;;;;5.90;4.60;;;;;;;-140.72;100.00;52833.22;5018525;28;20025;-69
2022/10/17 04:50:40;;;;;;;5.05;4.20;;;;;;;-140.72;100.00;52812.94;5023334;28;20025;-69
2022/10/17 04:53:05;;;;;;;5.55;4.10;;;;;;;-140.72;100.00;52808.88;5021590;28;20022;-68
2022/10/17 04:55:33;;;;;;;5.85;4.55;;;;;;;-140.72;100.00;52792.66;5018951;28;20026;-69
2022/10/17 04:57:59;;;;;;;7.10;4.55;;;;;;;-140.72;100.00;52810.91;5024822;28;20139;-68
2022/10/17 05:00:24;;;;;;;5.93;4.32;;;;;;;-140.72;100.00;52798.72;5020651;28;20119;-68
2022/10/17 05:02:49;;;;;;;6.18;4.45;;;;;;;-140.72;100.00;52814.97;5026966;28;20033;-68
2022/10/17 05:05:15;;;;;;;7.63;4.47;;;;;;;-140.72;100.00;52808.88;5031699;28;20082;-68
2022/10/17 05:07:40;;;;;;;9.90;4.15;;;;;;;-140.72;100.00;52808.88;5028176;28;20459;-69
2022/10/17 05:10:06;;;;;;;5.00;3.88;;;;;;;-140.72;100.00;52835.25;5025513;28;20045;-68
2022/10/17 05:12:32;;;;;;;5.80;4.30;;;;;;;-140.72;100.00;52800.75;5029356;28;20439;-68
2022/10/17 05:14:57;;;;;;;5.47;3.65;;;;;;;-140.72;100.00;52760.19;5021145;28;20033;-67
2022/10/17 05:17:23;;;;;;;5.35;3.53;;;;;;;-140.72;100.00;52800.75;5025221;28;20486;-69
2022/10/17 05:19:48;;;;;;;7.60;4.53;;;;;;;-140.72;100.00;52780.47;5024738;28;20386;-69
2022/10/17 05:22:13;;;;;;;4.68;3.70;;;;;;;-140.72;100.00;52817.00;5023450;28;20061;-69
2022/10/17 05:24:39;;;;;;;5.45;3.28;;;;;;;-140.72;100.00;52821.06;5025770;28;20116;-67
2022/10/17 05:27:04;;;;;;;5.72;4.03;;;;;;;-140.72;100.00;52792.66;5026388;28;20018;-67
2022/10/17 05:29:29;;;;;;;6.80;3.88;;;;;;;-140.72;100.00;52796.72;5013910;28;20025;-67
2022/10/17 05:31:55;;;;;;;4.95;3.53;;;;;;;-140.72;100.00;52806.84;5028492;28;20010;-69
2022/10/17 05:34:20;;;;;;;5.53;4.03;;;;;;;-140.72;100.00;52776.41;5027488;28;20054;-68
2022/10/17 05:36:45;;;;;;;5.10;3.58;;;;;;;-140.72;100.00;52855.56;5027110;28;20131;-68
2022/10/17 05:39:13;;;;;;;5.70;4.10;;;;;;;-140.72;100.00;52776.41;5029091;28;20025;-68
2022/10/17 05:41:40;;;;;;;8.00;4.05;;;;;;;-140.72;100.00;52812.94;5026291;28;20104;-67
2022/10/17 05:44:05;;;;;;;4.45;3.13;;;;;;;-140.72;100.00;52796.72;5021337;28;20034;-69
2022/10/17 05:46:30;;;;;;;10.63;4.75;;;;;;;-140.72;100.00;52808.88;5027341;28;20032;-68
2022/10/17 05:48:56;;;;;;;7.75;3.85;;;;;;;-140.72;100.00;52786.56;5022085;28;20120;-69
2022/10/17 05:51:21;;;;;;;3.83;3.22;;;;;;;-140.72;100.00;52817.00;5018222;28;20045;-69
2022/10/17 05:53:47;;;;;;;6.55;4.25;;;;;;;-140.72;100.00;52814.97;5027644;28;20485;-69
2022/10/17 05:56:13;;;;;;;6.68;4.55;;;;;;;-140.72;100.00;52800.75;5023006;28;20060;-69
2022/10/17 05:58:41;;;;;;;7.30;4.70;;;;;;;-140.72;100.00;52758.16;5014995;28;20108;-70
2022/10/17 06:01:07;;;;;;;4.90;3.80;;;;;;;-140.72;100.00;52782.50;5018572;28;20091;-68
2022/10/17 06:03:33;;;;;;;4.93;3.60;;;;;;;-140.72;100.00;52808.88;5027580;28;20335;-68
2022/10/17 06:06:04;;;;;;;4.93;3.78;;;;;;;-140.72;100.00;52853.53;5021255;28;20523;-69
2022/10/17 06:08:29;;;;;;;6.68;4.20;;;;;;;-140.72;100.00;52766.25;5019343;28;20026;-69
2022/10/17 06:10:54;;;;;;;5.60;4.47;;;;;;;-140.72;100.00;52743.94;5021634;28;20018;-69
2022/10/17 06:13:20;;;;;;;7.45;5.65;;;;;;;-140.72;100.00;52796.72;5024870;28;20018;-69
2022/10/17 06:15:46;;;;;;;6.38;4.00;;;;;;;-140.72;100.00;52812.94;5027411;28;20470;-70
2022/10/17 06:18:11;;;;;;;7.88;3.70;;;;;;;-140.72;100.00;52784.53;5027126;28;20029;-70
2022/10/17 06:20:37;;;;;;;5.15;3.80;;;;;;;-140.72;100.00;52731.75;5020799;28;20092;-69
2022/10/17 06:23:02;;;;;;;4.75;3.33;;;;;;;-140.72;100.00;52817.00;5011144;28;20061;-69
2022/10/17 06:25:35;;;;;;;6.43;3.97;;;;;;;-140.72;100.00;52804.81;5023684;28;20536;-70
2022/10/17 06:28:01;;;;;;;8.77;3.97;;;;;;;-140.72;100.00;52829.19;5015752;28;20041;-70
2022/10/17 06:30:26;;;;;;;7.68;4.05;;;;;;;-140.72;100.00;52817.00;5028595;28;20036;-69
2022/10/17 06:32:52;;;;;;;7.00;3.60;;;;;;;-140.72;100.00;52780.47;5026729;28;20100;-69
2022/10/17 06:35:18;;;;;;;5.40;3.80;;;;;;;-140.72;100.00;52800.75;5011647;28;20363;-69
2022/10/17 06:37:43;;;;;;;6.25;3.92;;;;;;;-140.72;100.00;52833.22;5023389;28;20454;-70
2022/10/17 06:40:11;;;;;;;5.43;3.45;;;;;;;-140.72;100.00;52810.91;5024316;28;20104;-69
2022/10/17 06:42:37;;;;;;;7.90;4.10;;;;;;;-140.72;100.00;52772.34;5020122;28;20061;-70
2022/10/17 06:45:03;;;;;;;5.55;3.45;;;;;;;-140.72;100.00;52800.75;5017132;28;20017;-68
2022/10/17 06:47:29;;;;;;;8.35;3.80;;;;;;;-140.72;100.00;52784.53;5015022;28;20041;-69
2022/10/17 06:49:54;;;;;;;6.13;4.47;;;;;;;-140.72;100.00;52810.91;5027997;28;20037;-68
2022/10/17 06:52:19;;;;;;;5.55;3.83;;;;;;;-140.72;100.00;52802.78;5024231;28;20030;-69
2022/10/17 06:54:45;;;;;;;5.68;4.18;;;;;;;-140.72;100.00;52788.59;5024800;28;20025;-69
2022/10/17 06:57:11;;;;;;;6.10;4.20;;;;;;;-140.72;100.00;52806.84;5025365;28;20026;-70
2022/10/17 06:59:36;;;;;;;5.65;3.83;;;;;;;-140.72;100.00;52804.81;5022151;28;20026;-70
2022/10/17 07:02:02;;;;;;;9.15;4.40;;;;;;;-140.72;100.00;52754.09;5023431;28;20374;-70
2022/10/17 07:04:27;;;;;;;5.63;4.15;;;;;;;-140.72;100.00;52798.72;5026872;28;20029;-70
2022/10/17 07:06:53;;;;;;;9.18;4.13;;;;;;;-140.72;100.00;52796.72;5026298;28;20116;-70
2022/10/17 07:09:19;;;;;;;5.78;4.28;;;;;;;-140.72;100.00;52768.28;5013549;28;20014;-69
2022/10/17 07:11:44;;;;;;;11.45;4.53;;;;;;;-140.72;100.00;52784.53;5022276;28;20022;-70
2022/10/17 07:14:10;;;;;;;5.20;3.45;;;;;;;-140.72;100.00;52778.44;5015232;28;20041;-70
2022/10/17 07:16:35;;;;;;;5.93;3.90;;;;;;;-140.72;100.00;52786.56;5022857;28;20021;-70
2022/10/17 07:19:01;;;;;;;6.47;4.15;;;;;;;-140.72;100.00;52790.63;5012864;28;20092;-70
2022/10/17 07:21:26;;;;;;;9.18;4.20;;;;;;;-140.72;100.00;52800.75;5025914;28;20068;-69
2022/10/17 07:23:52;;;;;;;5.22;4.18;;;;;;;-140.72;100.00;52810.91;5022479;28;20021;-69
2022/10/17 07:26:18;;;;;;;4.90;3.22;;;;;;;-140.72;100.00;52745.97;5026799;28;20025;-68
2022/10/17 07:28:45;;;;;;;5.85;3.97;;;;;;;-140.72;100.00;52782.50;5018123;28;20041;-69
2022/10/17 07:31:14;;;;;;;5.93;4.57;;;;;;;-140.72;100.00;52788.59;5016630;28;20465;-69
2022/10/17 07:33:40;;;;;;;8.43;4.65;;;;;;;-140.72;100.00;52796.72;5019281;28;20477;-69
2022/10/17 07:36:05;;;;;;;8.50;4.43;;;;;;;-140.72;100.00;52758.16;5022742;28;20244;-69
2022/10/17 07:38:31;;;;;;;8.88;5.05;;;;;;;-140.72;100.00;52772.34;5020343;28;20029;-69
2022/10/17 07:41:01;;;;;;;7.28;4.32;;;;;;;-140.72;100.00;52768.28;5026753;28;20124;-69
2022/10/17 07:43:30;;;;;;;;;;;;;;;-140.72;100.00;52772.34;5018094;28;20065;-67
2022/10/17 07:45:55;;;;;;;10.75;4.45;;;;;;;-140.72;100.00;52802.78;5022157;28;19906;-68
2022/10/17 07:48:23;;;;;;;8.38;4.70;;;;;;;-140.72;100.00;52794.69;5022264;28;20081;-68
2022/10/17 07:50:51;;;;;;;8.80;5.07;;;;;;;-140.72;100.00;52808.88;5027128;28;20022;-69
2022/10/17 07:53:17;;;;;;;6.07;4.60;;;;;;;-140.72;100.00;52758.16;5020711;28;20040;-72
2022/10/17 07:55:45;;;;;;;9.55;4.78;;;;;;;-140.72;100.00;52774.38;5023335;28;20022;-70
2022/10/17 07:58:11;;;;;;;5.88;4.43;;;;;;;-140.72;100.00;52764.25;5025540;28;20033;-69
2022/10/17 08:00:36;;;;;;;6.88;4.03;;;;;;;-140.72;100.00;52774.38;5019137;28;20093;-69
2022/10/17 08:03:02;;;;;;;4.95;3.85;;;;;;;-140.72;100.00;52776.41;5022100;28;20028;-70
2022/10/17 08:05:28;;;;;;;8.95;4.22;;;;;;;-140.72;100.00;52750.03;5017149;28;20422;-71
2022/10/17 08:07:54;;;;;;;6.72;4.85;;;;;;;-140.72;100.00;52762.22;5027230;28;20028;-70
2022/10/17 08:10:20;;;;;;;6.25;4.20;;;;;;;-140.72;100.00;52802.78;5023672;28;20088;-69
2022/10/17 08:12:45;;;;;;;5.40;4.18;;;;;;;-140.72;100.00;52796.72;5019340;28;20135;-69
2022/10/17 08:15:11;;;;;;;5.07;3.72;;;;;;;-140.72;100.00;52764.25;5026204;28;20032;-69
2022/10/17 08:17:37;;;;;;;5.20;4.00;;;;;;;-140.72;100.00;52784.53;5024563;28;20516;-70
2022/10/17 08:20:05;;;;;;;6.38;4.75;;;;;;;-140.72;100.00;52776.41;5011369;28;20455;-69
2022/10/17 08:22:31;;;;;;;7.30;4.10;;;;;;;-140.72;100.00;52782.50;5022597;28;20056;-69
2022/10/17 08:24:56;;;;;;;4.70;3.75;;;;;;;-140.72;100.00;52784.53;5021798;28;20379;-68
2022/10/17 08:27:27;;;;;;;6.88;4.13;;;;;;;-140.72;100.00;52743.94;5026640;28;20224;-68
2022/10/17 08:29:53;;;;;;;6.57;4.43;;;;;;;-140.72;100.00;52802.78;5022142;28;20029;-68
2022/10/17 08:32:20;;;;;;;5.82;3.65;;;;;;;-140.72;100.00;52721.63;5026658;28;20045;-68
2022/10/17 08:34:46;;;;;;;5.45;4.05;;;;;;;-140.72;100.00;52776.41;5028123;28;20045;-69
2022/10/17 08:37:12;;;;;;;5.10;3.38;;;;;;;-140.72;100.00;52741.91;5027704;28;20041;-69
2022/10/17 08:39:39;;;;;;;7.82;4.68;;;;;;;-140.72;100.00;52727.72;5027102;28;20029;-69
2022/10/17 08:42:04;;;;;;;5.85;4.07;;;;;;;-140.72;100.00;52786.56;5029413;28;20404;-71
2022/10/17 08:44:43;;;;;;;8.35;4.57;;;;;;;-140.72;100.00;52798.72;5020555;28;20031;-69
2022/10/17 08:47:14;;;;;;;8.32;3.60;;;;;;;-140.72;100.00;52766.25;5029329;28;20017;-69
2022/10/17 08:49:51;;;;;;;6.20;4.30;;;;;;;-140.72;100.00;52798.72;5032895;28;20347;-70
2022/10/17 08:52:36;;;;;;;6.40;4.47;;;;;;;-140.72;100.00;52776.41;5020139;28;20026;-68
2022/10/17 08:55:03;;;;;;;4.82;3.85;;;;;;;-140.72;100.00;52780.47;5025987;28;20077;-70
2022/10/17 08:57:29;;;;;;;7.88;4.53;;;;;;;-140.72;100.00;52776.41;5019042;28;20036;-68
2022/10/17 08:59:57;;;;;;;6.72;3.47;;;;;;;-140.72;100.00;52739.88;5031247;28;20345;-69
2022/10/17 09:02:47;;;;;;;6.38;4.38;;;;;;;-140.72;100.00;52731.75;5023522;28;20033;-69
2022/10/17 09:05:23;;;;;;;;;;;;;;;-140.72;100.00;52784.53;5016975;28;20894;-69
2022/10/17 09:08:08;;;;;;;5.07;3.65;;;;;;;-140.72;100.00;52764.25;5027759;28;20261;-69
2022/10/17 09:10:54;;;;;;;5.30;3.65;;;;;;;-140.72;100.00;52768.28;5020370;28;20026;-69
2022/10/17 09:13:41;;;;;;;5.13;3.70;;;;;;;-140.72;100.00;52760.19;5031058;28;20072;-69
2022/10/17 09:16:22;;;;;;;4.13;3.15;;;;;;;-140.72;100.00;52756.13;5029738;28;20142;-70
2022/10/17 09:19:11;;;;;;;5.35;3.58;;;;;;;-140.72;100.00;52810.91;5025353;28;20052;-70
2022/10/17 09:22:15;;;;;;;6.40;4.30;;;;;;;-140.72;100.00;52762.22;5021290;28;20032;-68
2022/10/17 09:24:54;;;;;;;5.82;3.90;;;;;;;-140.72;100.00;52758.16;5018307;28;20026;-68
2022/10/17 09:27:33;;;;;;;6.37;3.63;;;;;;;-140.72;100.00;52750.03;5030586;28;20099;-69
2022/10/17 09:30:28;;;;;;;5.43;3.97;;;;;;;-140.72;100.00;52752.06;5024901;28;20307;-69
2022/10/17 09:32:53;;;;;;;4.68;3.85;;;;;;;-140.72;100.00;52735.81;5030039;28;20029;-69
2022/10/17 09:35:21;;;;;;;7.18;4.32;;;;;;;-140.72;100.00;52764.25;5022940;28;20025;-69
2022/10/17 09:37:49;;;;;;;5.40;4.00;;;;;;;-140.72;100.00;52772.34;5021330;28;20024;-70
2022/10/17 09:40:30;;;;;;;6.55;4.18;;;;;;;-140.72;100.00;52752.06;5017443;28;20017;-68
2022/10/17 09:42:57;;;;;;;5.22;3.90;;;;;;;-140.72;100.00;52788.59;5017674;28;20022;-69
2022/10/17 09:45:25;;;;;;;7.95;4.25;;;;;;;-140.72;100.00;52758.16;5018872;28;20429;-68
2022/10/17 09:48:10;;;;;;;5.57;3.53;;;;;;;-140.72;100.00;52780.47;5015649;28;20034;-70
2022/10/17 09:50:38;;;;;;;6.35;4.45;;;;;;;-140.72;100.00;52780.47;5023829;28;20025;-70
2022/10/17 09:53:25;;;;;;;5.78;4.05;;;;;;;-140.72;100.00;52756.13;5020562;28;20022;-69
2022/10/17 09:55:55;;;;;;;9.63;4.32;;;;;;;-140.72;100.00;52778.44;5018479;28;20025;-70
2022/10/17 09:58:39;;;;;;;5.70;4.07;;;;;;;-140.72;100.00;52794.69;5026385;28;20041;-68
2022/10/17 10:01:18;;;;;;;5.22;3.88;;;;;;;-140.72;100.00;52762.22;5017866;28;20022;-69
2022/10/17 10:03:44;;;;;;;5.90;3.90;;;;;;;-140.72;100.00;52756.13;5021423;28;20025;-69
2022/10/17 10:06:17;;;;;;;6.03;4.40;;;;;;;-140.72;100.00;52782.50;5013265;28;20033;-69
2022/10/17 10:08:51;;;;;;;6.10;4.13;;;;;;;-140.72;100.00;52762.22;5028670;28;20313;-69
2022/10/17 10:11:18;;;;;;;5.85;3.60;;;;;;;-140.72;100.00;52790.63;5023574;28;20462;-69
2022/10/17 10:13:46;;;;;;;6.25;4.00;;;;;;;-140.72;100.00;52762.22;5017261;28;20382;-70
2022/10/17 10:16:32;;;;;;;4.53;3.33;;;;;;;-140.72;100.00;52784.53;5028806;28;20037;-69
2022/10/17 10:18:57;;;;;;;10.30;3.25;;;;;;;-140.72;100.00;52774.38;5025957;28;20021;-70
2022/10/17 10:21:27;;;;;;;3.45;2.30;;;;;;;-140.72;100.00;52770.31;5024894;28;20042;-69
2022/10/17 10:23:58;;;;;;;6.40;2.97;;;;;;;-140.72;100.00;52764.25;5023159;28;20064;-70
2022/10/17 10:26:31;;;;;;;5.47;3.67;;;;;;;-140.72;100.00;52790.63;5028866;28;21142;-69
2022/10/17 10:29:03;;;;;;;5.50;3.20;;;;;;;-140.72;100.00;52748.00;5029914;28;20041;-69
2022/10/17 10:31:34;;;;;;;5.03;2.88;;;;;;;-140.72;100.00;52784.53;5019352;28;20063;-68
2022/10/17 10:34:11;;;;;;;5.15;3.45;;;;;;;-140.72;100.00;52776.41;5020006;28;20095;-69
2022/10/17 10:36:44;;;;;;;5.43;3.80;;;;;;;-140.72;100.00;52735.81;5026428;28;20064;-69
2022/10/17 10:39:34;;;;;;;4.82;3.00;;;;;;;-140.72;100.00;52780.47;5026437;28;20553;-69
2022/10/17 10:42:06;;;;;;;3.08;2.03;;;;;;;-140.72;100.00;52731.75;5028570;28;20033;-70
2022/10/17 10:44:33;;;;;;;6.03;2.97;;;;;;;-140.72;100.00;52778.44;5022216;28;20026;-69
2022/10/17 10:47:17;;;;;;;3.45;2.38;;;;;;;-140.72;100.00;52764.25;5026273;28;20021;-68
2022/10/17 10:49:44;;;;;;;6.78;2.85;;;;;;;-140.72;100.00;52776.41;5021672;28;20021;-69
2022/10/17 10:52:31;;;;;;;7.93;2.78;;;;;;;-140.72;100.00;52792.66;5020579;28;20470;-69
2022/10/17 10:55:14;;;;;;;4.45;2.97;;;;;;;-140.72;100.00;52739.88;5013808;28;20030;-69
2022/10/17 10:57:43;;;;;;;8.90;2.95;;;;;;;-140.72;100.00;52829.19;5027341;28;20063;-69
2022/10/17 11:00:16;;;;;;;3.73;2.70;;;;;;;-140.72;100.00;52792.66;5023130;28;20083;-69
2022/10/17 11:03:18;;;;;;;3.42;2.85;;;;;;;-140.72;100.00;52729.75;5028360;28;20373;-70
2022/10/17 11:05:48;;;;;;;4.55;2.40;;;;;;;-140.72;100.00;52778.44;5028188;28;20021;-70
2022/10/17 11:08:27;;;;;;;5.25;2.60;;;;;;;-140.72;100.00;52784.53;5015522;28;20037;-70
2022/10/17 11:11:22;;;;;;;3.55;2.33;;;;;;;-140.72;100.00;52776.41;5022652;28;20013;-69
2022/10/17 11:14:14;;;;;;;3.45;2.15;;;;;;;-140.72;100.00;52819.03;5022344;28;20528;-68
2022/10/17 11:16:59;;;;;;;7.50;2.25;;;;;;;-140.72;100.00;52800.75;5022676;28;20021;-70
2022/10/17 11:19:35;;;;;;;5.35;3.10;;;;;;;-140.72;100.00;52782.50;5020436;28;20076;-70
2022/10/17 11:22:08;;;;;;;5.07;3.03;;;;;;;-140.72;100.00;52772.34;5017308;28;20029;-70
2022/10/17 11:24:42;;;;;;;5.07;2.53;;;;;;;-140.72;100.00;52778.44;5016816;28;20037;-70